createdAt,value
2023-03-23T15:58:13.104Z,15.48
2023-03-23T16:00:43.887Z,19.52
2023-03-23T16:03:19.929Z,13.60
2023-03-23T16:05:47.560Z,12.05
2023-03-23T16:08:16.174Z,12.23
2023-03-23T16:10:44.538Z,12.85
2023-03-23T16:13:13.986Z,10.85
2023-03-23T16:15:44.346Z,11.40
2023-03-23T16:18:17.764Z,24.10
2023-03-23T16:20:45.723Z,27.65
2023-03-23T16:23:13.532Z,31.80
2023-03-23T16:25:41.454Z,17.10
2023-03-23T16:28:12.972Z,29.00
2023-03-23T16:30:42.092Z,37.75
2023-03-23T16:33:10.123Z,37.83
2023-03-23T16:35:41.175Z,53.50
2023-03-23T16:38:15.962Z,73.00
2023-03-23T16:40:46.430Z,94.03
2023-03-23T16:43:14.514Z,91.82
2023-03-23T16:45:47.650Z,84.65
2023-03-23T16:48:16.922Z,78.10
2023-03-23T16:50:47.009Z,75.75
2023-03-23T16:53:16.082Z,68.55
2023-03-23T16:55:47.912Z,63.60
2023-03-23T16:58:25.741Z,68.17
2023-03-23T17:00:54.029Z,69.25
2023-03-23T17:03:23.628Z,73.57
2023-03-23T17:05:54.635Z,80.95
2023-03-23T17:08:22.705Z,92.08
2023-03-23T17:10:50.625Z,89.00
2023-03-23T17:13:19.814Z,92.20
2023-03-23T17:15:47.727Z,96.72
2023-03-23T17:18:15.874Z,105.72
2023-03-23T17:20:43.847Z,99.17
2023-03-23T17:23:11.996Z,77.35
2023-03-23T17:25:40.197Z,66.72
2023-03-23T17:28:08.126Z,60.98
2023-03-23T17:30:41.515Z,55.38
2023-03-23T17:33:10.746Z,43.75
2023-03-23T17:35:38.299Z,41.83
2023-03-23T17:38:05.996Z,37.80
2023-03-23T17:40:33.999Z,31.33
2023-03-23T17:43:02.084Z,27.82
2023-03-23T17:45:31.211Z,27.90
2023-03-23T17:47:59.500Z,36.48
2023-03-23T17:50:27.404Z,28.80
2023-03-23T17:52:56.354Z,28.00
2023-03-23T17:55:23.914Z,27.58
2023-03-23T17:57:51.795Z,27.50
2023-03-23T18:00:20.657Z,29.05
2023-03-23T18:02:48.264Z,29.32
2023-03-23T18:05:16.370Z,29.02
2023-03-23T18:07:45.928Z,32.67
2023-03-23T18:10:15.707Z,39.60
2023-03-23T18:12:45.364Z,41.73
2023-03-23T18:15:14.908Z,44.67
2023-03-23T18:17:44.585Z,40.78
2023-03-23T18:20:12.618Z,39.92
2023-03-23T18:22:40.143Z,37.35
2023-03-23T18:25:08.217Z,34.53
2023-03-23T18:27:37.491Z,33.20
2023-03-23T18:30:07.468Z,33.23
2023-03-23T18:32:38.613Z,38.17
2023-03-23T18:35:10.512Z,35.00
2023-03-23T18:37:40.953Z,34.25
2023-03-23T18:40:10.891Z,32.40
2023-03-23T18:42:42.094Z,34.27
2023-03-23T18:45:10.473Z,33.45
2023-03-23T18:47:39.272Z,34.92
2023-03-23T18:50:10.998Z,33.90
2023-03-23T18:52:38.982Z,29.72
2023-03-23T18:55:07.352Z,30.12
2023-03-23T18:57:35.356Z,29.07
2023-03-23T19:00:05.620Z,29.75
2023-03-23T19:02:34.969Z,33.10
2023-03-23T19:05:03.054Z,37.70
2023-03-23T19:07:31.489Z,35.73
2023-03-23T19:10:01.517Z,40.55
2023-03-23T19:12:29.218Z,40.63
2023-03-23T19:14:58.092Z,38.53
2023-03-23T19:17:26.511Z,34.70
2023-03-23T19:19:54.646Z,32.67
2023-03-23T19:22:22.601Z,30.10
2023-03-23T19:24:50.708Z,29.40
2023-03-23T19:27:21.045Z,30.25
2023-03-23T19:29:50.653Z,29.55
2023-03-23T19:32:20.037Z,30.85
2023-03-23T19:34:51.013Z,31.27
2023-03-23T19:37:18.747Z,34.25
2023-03-23T19:39:47.650Z,34.73
2023-03-23T19:42:17.422Z,37.00
2023-03-23T19:44:45.242Z,36.30
2023-03-23T19:47:13.594Z,35.63
2023-03-23T19:49:42.006Z,33.20
2023-03-23T19:52:12.670Z,33.35
2023-03-23T19:54:40.911Z,30.43
2023-03-23T19:57:10.029Z,31.37
2023-03-23T19:59:38.372Z,30.05
2023-03-23T20:02:06.888Z,30.05
2023-03-23T20:04:36.040Z,30.75
2023-03-23T20:07:07.435Z,30.85
2023-03-23T20:09:36.822Z,30.12
2023-03-23T20:12:06.434Z,29.63
2023-03-23T20:14:35.379Z,30.57
2023-03-23T20:17:05.472Z,31.07
2023-03-23T20:22:02.584Z,30.57
2023-03-23T20:24:30.713Z,32.15
2023-03-23T20:27:00.686Z,30.70
2023-03-23T20:29:31.574Z,30.40
2023-03-23T20:31:59.500Z,30.23
2023-03-23T20:34:30.437Z,28.23
2023-03-23T20:37:01.466Z,27.17
2023-03-23T20:39:31.601Z,25.72
2023-03-23T20:42:02.927Z,24.80
2023-03-23T20:44:33.438Z,23.60
2023-03-23T20:47:02.821Z,22.67
2023-03-23T20:49:31.550Z,22.00
2023-03-23T20:51:59.866Z,21.68
2023-03-23T20:54:29.772Z,22.02
2023-03-23T20:57:00.677Z,21.68
2023-03-23T20:59:28.629Z,21.62
2023-03-23T21:01:56.503Z,24.18
2023-03-23T21:04:28.338Z,23.67
2023-03-23T21:06:56.485Z,23.45
2023-03-23T21:09:24.816Z,22.75
2023-03-23T21:11:53.785Z,21.48
2023-03-23T21:14:21.880Z,22.05
2023-03-23T21:16:49.724Z,21.95
2023-03-23T21:19:18.935Z,21.82
2023-03-23T21:21:55.301Z,22.42
2023-03-23T21:24:16.944Z,25.10
2023-03-23T21:26:44.884Z,24.45
2023-03-23T21:29:15.443Z,23.80
2023-03-23T21:31:43.929Z,24.12
2023-03-23T21:34:13.440Z,23.32
2023-03-23T21:36:41.413Z,23.18
2023-03-23T21:39:09.950Z,22.20
2023-03-23T21:41:41.974Z,21.00
2023-03-23T21:44:09.728Z,21.00
2023-03-23T21:46:41.642Z,22.20
2023-03-23T21:49:13.128Z,20.62
2023-03-23T21:51:42.836Z,21.48
2023-03-23T21:54:12.090Z,21.17
2023-03-23T21:56:40.068Z,21.25
2023-03-23T21:59:08.582Z,19.82
2023-03-23T22:01:37.138Z,19.70
2023-03-23T22:04:07.342Z,19.92
2023-03-23T22:06:35.357Z,19.65
2023-03-23T22:09:04.816Z,18.52
2023-03-23T22:11:32.988Z,17.57
2023-03-23T22:14:01.506Z,18.67
2023-03-23T22:16:29.873Z,18.15
2023-03-23T22:19:00.355Z,18.00
2023-03-23T22:21:29.960Z,19.20
2023-03-23T22:23:59.990Z,17.10
2023-03-23T22:26:29.555Z,16.67
2023-03-23T22:28:59.769Z,17.35
2023-03-23T22:31:33.295Z,15.23
2023-03-23T22:34:01.760Z,14.38
2023-03-23T22:36:32.808Z,14.28
2023-03-23T22:39:01.648Z,13.62
2023-03-23T22:41:35.019Z,12.07
2023-03-23T22:44:05.636Z,12.25
2023-03-23T22:46:33.669Z,13.18
2023-03-23T22:49:01.994Z,12.53
2023-03-23T22:51:30.184Z,13.60
2023-03-23T22:53:58.225Z,13.22
2023-03-23T22:56:26.109Z,13.60
2023-03-23T22:58:54.208Z,15.55
2023-03-23T23:01:23.075Z,16.62
2023-03-23T23:03:51.306Z,15.80
2023-03-23T23:06:20.540Z,15.40
2023-03-23T23:08:48.890Z,15.30
2023-03-23T23:11:20.859Z,15.08
2023-03-23T23:13:49.733Z,13.98
2023-03-23T23:16:21.124Z,14.00
2023-03-23T23:18:49.300Z,13.72
2023-03-23T23:21:20.786Z,14.15
2023-03-23T23:23:50.655Z,12.05
2023-03-23T23:26:20.046Z,11.08
2023-03-23T23:28:48.341Z,11.15
2023-03-23T23:31:27.281Z,10.72
2023-03-23T23:33:58.694Z,9.88
2023-03-23T23:36:29.257Z,10.63
2023-03-23T23:38:59.135Z,10.70
2023-03-23T23:41:29.500Z,9.58
2023-03-23T23:43:57.416Z,9.53
2023-03-23T23:46:26.051Z,10.05
2023-03-23T23:48:54.036Z,9.68
2023-03-23T23:51:23.741Z,9.83
2023-03-23T23:53:53.011Z,10.38
2023-03-23T23:56:21.816Z,10.38
2023-03-23T23:58:49.655Z,11.83
